Aérodrome :
LOGIN :

S'inscrire | Disclaimer

   EN    FR    IT 

 










Légende :    VFR   VFR Marginal   IFR   IFR Intensif   IFR Très Intensif
Visi : 
Plafond : 
>= 8 km
>= 3000ft
5 à 8 km
1000 à 3000 ft
1500m à 5 km
500 à 1000 ft
800 à 1500m
200 à 500 ft
< 800m
< 200 ft
Symboles :   Orages  Brouillard  Fortes neiges  Fortes précipitations  Vent > 20 kt
SIGMETs :   Divers  Orages  Givrage  Turbulence  Onde Orograph.  Cendres Volcan.






- Altitude de l'aérodrome : 121 ft
- Code IATA : HUY


EGNJ - Humberside

DERNIER METAR :
  • 160420Z AUTO 20003KT 6000 -RA BKN003/// OVC042/// 10/10 Q0997 RERA

METARs EXPIRÉS :
  • 160350Z AUTO 19002KT 6000 -RA OVC003/// 10/10 Q0997 RERA
  • 160320Z AUTO 00000KT 5000 -DZ OVC004/// 10/10 Q0997 RERA
  • 160250Z AUTO 00000KT 7000 -RA BKN006/// BKN032/// OVC049/// 09/09 Q0997
  • 160220Z AUTO 16001KT 8000 -RA FEW032/// BKN042/// 10/09 Q0997 RERA
  • 160150Z AUTO 17003KT 6000 -RA FEW032/// OVC041/// 10/10 Q0997 RERA

TAF TAF EGNJ
Valide du 16 à 03h jusqu'au 16 à 12h UTC


160156Z 1603/1612 16010KT 9999 SCT008 BKN030
BECMG 1603/1606 22005KT
TEMPO 1603/1609 4000 -RADZ BR BKN006
PROB30
TEMPO 1603/1607 2000 RADZ BKN004
TEMPO 1609/1612 6000 SHRA BKN013
PROB40
TEMPO 1609/1612 3000 +SHRA TSGS BKN009 BKN013CB
ATIS : +44 1652 682 020



MET'MAP, la Météo Aéronautique d'un coup d'oeil ! - Copyright ORBIFLY Décembre 2007 - Disclaimer

ORBIFLY MET'MAP TEAM :

Programmation & Développement : Alexandra Zaïnal
Sur une idée originale de : Baudouin d'Aumeries
Assistance à la programmation : Marc-Olivier Méhu
Soutien technique & logistique : Manuel Goepfert

Contact : metmap@orbifly.com




SOURCES & CREDITS :

   NOAA